Terminal Aerodrome Forecast
Issued by NWS Sioux Falls, SD

Home | Current Version | Previous Version | Graphics & Text | Print | Product List | Glossary Off
Versions: 1 2 3 4 5 6 7 8 9 10 11 12 13 14 15 16 17 18 19 20 21 22 23 24 25 26 27 28 29 30 31 32 33 34

626
FTUS43 KFSD 151737
TAFSUX
TAF
KSUX 151737Z 1518/1618 26009KT P6SM SKC
     FM152000 27012G16KT P6SM SKC
     FM160000 26006KT P6SM SKC
     FM161100 15004KT P6SM SKC
     FM161700 19008KT P6SM SKC=

USA.gov is the U.S. government's official web portal to all federal, state and local government web resources and services.